createdAt,value
2022-08-11T00:01:27.310Z,25.21
2022-08-11T00:04:03.155Z,25.07
2022-08-11T00:06:40.006Z,25.17
2022-08-11T00:09:11.082Z,25.12
2022-08-11T00:11:46.044Z,25.09
2022-08-11T00:14:37.437Z,25.08
2022-08-11T00:17:09.538Z,25.08
2022-08-11T00:20:11.732Z,24.95
2022-08-11T00:22:45.133Z,24.89
2022-08-11T00:25:16.310Z,24.88
2022-08-11T00:27:44.126Z,24.78
2022-08-11T00:30:13.302Z,24.68
2022-08-11T00:32:55.292Z,24.49
2022-08-11T00:35:55.337Z,24.51
2022-08-11T00:38:17.274Z,24.44
2022-08-11T00:40:53.612Z,24.36
2022-08-11T00:43:43.002Z,24.36
2022-08-11T00:46:22.702Z,24.28
2022-08-11T00:49:07.093Z,24.00
2022-08-11T00:52:05.688Z,24.22
2022-08-11T00:54:39.530Z,24.12
2022-08-11T00:57:37.610Z,24.10
2022-08-11T01:00:16.300Z,24.24
2022-08-11T01:03:07.794Z,24.48
2022-08-11T01:05:46.603Z,24.41
2022-08-11T01:08:19.802Z,24.31
2022-08-11T01:11:02.963Z,24.44
2022-08-11T01:13:46.794Z,24.39
2022-08-11T01:16:39.440Z,24.51
2022-08-11T01:19:29.750Z,24.32
2022-08-11T01:22:15.725Z,24.55
2022-08-11T01:25:16.828Z,24.56
2022-08-11T01:28:03.166Z,24.63
2022-08-11T01:30:54.815Z,24.66
2022-08-11T01:33:59.675Z,24.73
2022-08-11T01:37:05.382Z,24.49
2022-08-11T01:39:51.511Z,24.48
2022-08-11T01:43:11.994Z,24.23
2022-08-11T01:45:51.572Z,24.31
2022-08-11T01:48:38.043Z,24.35
2022-08-11T01:51:25.053Z,24.27
2022-08-11T01:54:09.990Z,24.22
2022-08-11T01:56:50.001Z,24.19
2022-08-11T01:59:19.564Z,24.07
2022-08-11T02:02:05.629Z,24.13
2022-08-11T02:04:44.209Z,24.15
2022-08-11T02:07:26.250Z,24.16
2022-08-11T02:10:22.965Z,24.02
2022-08-11T02:13:00.492Z,23.90
2022-08-11T02:15:36.455Z,23.96
2022-08-11T02:18:10.938Z,24.03
2022-08-11T02:21:03.348Z,24.21
2022-08-11T02:24:06.113Z,24.17
2022-08-11T02:26:46.351Z,24.19
2022-08-11T02:29:19.763Z,24.25
2022-08-11T02:32:25.047Z,24.18
2022-08-11T02:35:12.366Z,24.32
2022-08-11T02:38:12.810Z,24.36
2022-08-11T02:41:01.438Z,24.20
2022-08-11T02:43:40.595Z,24.37
2022-08-11T02:46:21.388Z,23.94
2022-08-11T02:50:02.734Z,24.11
2022-08-11T02:52:52.157Z,24.15
2022-08-11T02:55:55.681Z,23.93
2022-08-11T02:58:28.115Z,23.87
2022-08-11T03:01:23.895Z,24.27
2022-08-11T03:03:57.946Z,24.19
2022-08-11T03:06:52.096Z,24.12
2022-08-11T03:09:26.288Z,24.12
2022-08-11T03:12:21.359Z,24.15
2022-08-11T03:15:30.844Z,24.09
2022-08-11T03:18:16.416Z,24.05
2022-08-11T03:20:56.657Z,23.80
2022-08-11T03:23:31.422Z,23.88
2022-08-11T03:26:07.703Z,23.92
2022-08-11T03:28:53.425Z,23.84
2022-08-11T03:31:28.611Z,23.95
2022-08-11T03:34:09.091Z,23.79
2022-08-11T03:37:14.970Z,23.81
2022-08-11T03:39:56.135Z,23.70
2022-08-11T03:42:33.399Z,23.73
2022-08-11T03:45:40.988Z,23.77
2022-08-11T03:48:25.748Z,23.72
2022-08-11T03:50:58.427Z,23.78
2022-08-11T03:53:58.340Z,23.64
2022-08-11T03:56:48.017Z,23.74
2022-08-11T03:59:46.145Z,23.78
2022-08-11T04:02:39.302Z,23.81
2022-08-11T04:05:38.983Z,23.91
2022-08-11T04:08:33.895Z,23.87
2022-08-11T04:11:29.945Z,23.74
2022-08-11T04:14:49.989Z,23.86
2022-08-11T04:17:38.965Z,23.96
2022-08-11T04:20:31.397Z,23.99
2022-08-11T04:24:33.042Z,24.10
2022-08-11T04:26:34.368Z,24.06
2022-08-11T04:29:15.625Z,23.94
2022-08-11T04:31:52.804Z,24.04
2022-08-11T04:34:36.492Z,23.98
2022-08-11T04:37:31.832Z,23.96
2022-08-11T04:40:25.072Z,24.01
2022-08-11T04:43:23.428Z,23.92
2022-08-11T04:46:09.120Z,23.84
2022-08-11T04:49:10.246Z,24.00
2022-08-11T04:52:35.994Z,24.04
2022-08-11T04:55:53.502Z,24.07
2022-08-11T04:59:08.601Z,24.12
2022-08-11T05:01:41.880Z,24.13
2022-08-11T05:04:58.219Z,24.34
2022-08-11T05:08:23.439Z,24.35
2022-08-11T05:11:16.310Z,24.41
2022-08-11T05:14:07.196Z,24.58
2022-08-11T05:17:10.688Z,24.56
2022-08-11T05:19:56.874Z,24.79
2022-08-11T05:22:47.337Z,24.95
2022-08-11T05:26:44.551Z,25.04
2022-08-11T05:28:58.270Z,25.03
2022-08-11T05:31:51.387Z,25.26
2022-08-11T05:34:44.332Z,25.39
2022-08-11T05:37:34.095Z,25.38
2022-08-11T05:40:27.436Z,25.63
2022-08-11T05:43:31.047Z,25.77
2022-08-11T05:46:22.444Z,25.87
2022-08-11T05:49:09.344Z,25.94
2022-08-11T05:52:05.034Z,26.11
2022-08-11T05:54:54.349Z,26.20
2022-08-11T05:57:39.618Z,26.40
2022-08-11T06:00:14.456Z,26.38
2022-08-11T06:02:50.316Z,26.35
2022-08-11T06:05:19.471Z,26.47
2022-08-11T06:07:50.025Z,26.65
2022-08-11T06:10:32.376Z,26.84
2022-08-11T06:13:03.299Z,27.00
2022-08-11T06:15:34.633Z,27.01
2022-08-11T06:18:03.449Z,27.05
2022-08-11T06:20:36.882Z,27.15
2022-08-11T06:23:06.934Z,27.18
2022-08-11T06:25:35.805Z,27.28
2022-08-11T06:28:06.361Z,27.33
2022-08-11T06:30:39.598Z,27.41
2022-08-11T06:33:31.627Z,27.38
2022-08-11T06:36:14.601Z,27.61
2022-08-11T06:39:02.572Z,27.67
2022-08-11T06:41:49.951Z,27.78
2022-08-11T06:44:24.450Z,27.94
2022-08-11T06:46:53.108Z,28.04
2022-08-11T06:49:41.794Z,27.93
2022-08-11T06:52:34.497Z,28.06
2022-08-11T06:55:08.638Z,28.25
2022-08-11T06:57:58.484Z,28.38
2022-08-11T07:00:28.620Z,28.52
2022-08-11T07:03:03.956Z,28.64
2022-08-11T07:05:46.893Z,28.55
2022-08-11T07:09:03.621Z,28.79
2022-08-11T07:12:27.224Z,28.97
2022-08-11T07:15:15.438Z,28.98
2022-08-11T07:18:10.443Z,29.18
2022-08-11T07:21:02.421Z,29.19
2022-08-11T07:23:50.763Z,29.27
2022-08-11T07:26:38.755Z,29.44
2022-08-11T07:29:07.349Z,29.48
2022-08-11T07:31:37.623Z,29.52
2022-08-11T07:34:28.665Z,29.65
2022-08-11T07:36:58.030Z,29.73
2022-08-11T07:39:33.348Z,29.77
2022-08-11T07:42:06.508Z,29.89
2022-08-11T07:44:54.504Z,30.01
2022-08-11T07:47:41.340Z,30.14
2022-08-11T07:50:28.314Z,30.10
2022-08-11T07:52:57.908Z,30.14
2022-08-11T07:55:49.016Z,30.14
2022-08-11T07:58:37.765Z,30.08
2022-08-11T08:01:38.311Z,29.91
2022-08-11T08:04:26.056Z,29.74
2022-08-11T08:07:12.491Z,29.40
2022-08-11T08:09:59.287Z,29.66
2022-08-11T08:12:45.761Z,29.77
2022-08-11T08:15:33.800Z,29.78
2022-08-11T08:18:09.506Z,29.79
2022-08-11T08:20:51.222Z,29.79
2022-08-11T08:23:33.763Z,29.72
2022-08-11T08:26:04.666Z,29.81
2022-08-11T08:28:32.930Z,29.92
2022-08-11T08:31:00.592Z,29.91
2022-08-11T08:33:30.820Z,29.90
2022-08-11T08:36:16.892Z,29.91
2022-08-11T08:38:49.643Z,29.97
2022-08-11T08:41:32.594Z,29.98
2022-08-11T08:44:27.628Z,29.89
2022-08-11T08:46:54.999Z,29.85
2022-08-11T08:49:27.727Z,29.98
2022-08-11T08:52:20.124Z,30.02
2022-08-11T08:54:44.894Z,29.81
2022-08-11T08:57:13.262Z,29.82
2022-08-11T08:59:48.466Z,30.00
2022-08-11T09:02:33.452Z,29.99
2022-08-11T09:05:05.875Z,29.83
2022-08-11T09:07:39.844Z,29.77
2022-08-11T09:10:10.090Z,29.66
2022-08-11T09:12:39.811Z,29.87
2022-08-11T09:15:10.267Z,29.91
2022-08-11T09:17:45.314Z,29.96
2022-08-11T09:20:18.101Z,30.04
2022-08-11T09:26:18.911Z,30.37
2022-08-11T09:28:47.556Z,30.50
2022-08-11T09:31:15.000Z,30.67
2022-08-11T09:33:43.761Z,30.66
2022-08-11T09:36:31.765Z,30.88
2022-08-11T09:39:19.322Z,31.03
2022-08-11T09:42:01.041Z,31.16
2022-08-11T09:44:50.275Z,30.86
2022-08-11T09:47:29.743Z,30.90
2022-08-11T09:50:00.796Z,31.02
2022-08-11T09:52:29.362Z,30.97
2022-08-11T09:54:56.916Z,31.20
2022-08-11T09:57:44.139Z,30.97
2022-08-11T10:00:14.158Z,31.19
2022-08-11T10:02:45.254Z,31.15
2022-08-11T10:05:34.388Z,31.11
2022-08-11T10:08:02.973Z,31.05
2022-08-11T10:10:34.906Z,31.00
2022-08-11T10:13:05.636Z,30.96
2022-08-11T10:16:00.026Z,31.08
2022-08-11T10:18:53.964Z,31.02
2022-08-11T10:21:28.202Z,30.98
2022-08-11T10:24:17.515Z,30.85
2022-08-11T10:26:53.594Z,30.79
2022-08-11T10:29:45.457Z,30.66
2022-08-11T10:32:49.345Z,30.80
2022-08-11T10:35:32.087Z,30.84
2022-08-11T10:38:06.435Z,31.18
2022-08-11T10:40:35.854Z,31.06
2022-08-11T10:43:05.415Z,31.09
2022-08-11T10:45:56.512Z,30.78
2022-08-11T10:48:25.996Z,30.82
2022-08-11T10:51:12.648Z,30.52
2022-08-11T10:54:04.708Z,30.71
2022-08-11T10:56:54.670Z,30.58
2022-08-11T10:59:23.902Z,30.40
2022-08-11T11:01:52.901Z,30.63
2022-08-11T11:04:29.299Z,30.84
2022-08-11T11:07:08.096Z,31.09
2022-08-11T11:09:43.959Z,31.14
2022-08-11T11:12:38.099Z,30.80
2022-08-11T11:15:25.066Z,30.80
2022-08-11T11:18:06.847Z,30.43
2022-08-11T11:21:07.361Z,30.47
2022-08-11T11:24:03.007Z,30.67
2022-08-11T11:26:55.822Z,30.61
2022-08-11T11:29:26.272Z,30.75
2022-08-11T11:32:08.947Z,31.05
2022-08-11T11:34:53.713Z,31.21
2022-08-11T11:37:25.419Z,31.40
2022-08-11T11:39:54.692Z,31.45
2022-08-11T11:42:22.546Z,31.56
2022-08-11T11:44:52.191Z,31.54
2022-08-11T11:47:23.417Z,31.36
2022-08-11T11:49:50.828Z,31.30
2022-08-11T11:52:19.832Z,31.13
2022-08-11T11:54:50.824Z,30.98
2022-08-11T11:57:40.628Z,31.06
2022-08-11T12:00:33.676Z,31.13
2022-08-11T12:03:05.061Z,31.05
2022-08-11T12:05:34.648Z,31.25
2022-08-11T12:08:13.034Z,31.46
2022-08-11T12:10:50.744Z,31.49
2022-08-11T12:13:37.616Z,31.37
2022-08-11T12:16:34.851Z,31.30
2022-08-11T12:18:59.504Z,31.21
2022-08-11T12:21:28.639Z,31.08
2022-08-11T12:24:16.548Z,30.95
2022-08-11T12:27:15.185Z,30.76
2022-08-11T12:29:41.178Z,30.89
2022-08-11T12:32:12.071Z,31.19
2022-08-11T12:34:39.802Z,31.15
2022-08-11T12:37:13.031Z,31.13
2022-08-11T12:40:16.078Z,31.08
2022-08-11T12:43:21.212Z,30.96
2022-08-11T12:45:58.390Z,30.92
2022-08-11T12:48:58.562Z,30.94
2022-08-11T12:52:11.528Z,30.76
2022-08-11T12:54:42.106Z,30.44
2022-08-11T12:57:37.422Z,30.37
2022-08-11T13:00:25.671Z,30.37
2022-08-11T13:03:12.732Z,30.68
2022-08-11T13:05:44.641Z,30.54
2022-08-11T13:08:16.867Z,30.87
2022-08-11T13:11:03.908Z,31.05
2022-08-11T13:13:55.085Z,30.92
2022-08-11T13:16:20.711Z,30.90
2022-08-11T13:18:50.147Z,31.05
2022-08-11T13:21:20.692Z,31.15
2022-08-11T13:24:00.537Z,30.98
2022-08-11T13:26:41.643Z,31.14
2022-08-11T13:29:21.220Z,31.12
2022-08-11T13:31:49.328Z,31.21
2022-08-11T13:34:17.906Z,31.43
2022-08-11T13:36:45.817Z,31.24
2022-08-11T13:39:13.573Z,31.34
2022-08-11T13:41:44.004Z,31.02
2022-08-11T13:44:15.632Z,30.87
2022-08-11T13:46:46.560Z,30.84
2022-08-11T13:49:17.565Z,30.81
2022-08-11T13:51:45.258Z,30.62
2022-08-11T13:54:20.371Z,30.59
2022-08-11T13:56:52.297Z,30.46
2022-08-11T13:59:29.558Z,30.49
2022-08-11T14:02:22.305Z,30.56
2022-08-11T14:04:58.005Z,30.30
2022-08-11T14:07:28.812Z,30.33
2022-08-11T14:09:59.293Z,30.45
2022-08-11T14:12:48.223Z,30.33
2022-08-11T14:15:29.445Z,30.24
2022-08-11T14:18:05.634Z,30.15
2022-08-11T14:20:54.459Z,30.12
2022-08-11T14:23:28.070Z,29.98
2022-08-11T14:26:15.282Z,30.11
2022-08-11T14:28:45.140Z,30.19
2022-08-11T14:31:16.169Z,30.33
2022-08-11T14:34:00.237Z,30.32
2022-08-11T14:36:32.685Z,30.13
2022-08-11T14:39:02.227Z,29.89
2022-08-11T14:42:10.364Z,29.93
2022-08-11T14:44:56.515Z,30.13
2022-08-11T14:47:25.636Z,30.22
2022-08-11T14:50:08.254Z,30.17
2022-08-11T14:52:39.562Z,30.14
2022-08-11T14:55:26.608Z,29.95
2022-08-11T14:57:57.074Z,29.77
2022-08-11T15:00:25.140Z,29.63
2022-08-11T15:03:13.270Z,29.81
2022-08-11T15:05:57.449Z,29.82
2022-08-11T15:08:53.915Z,29.97
2022-08-11T15:11:41.845Z,29.89
2022-08-11T15:14:10.783Z,29.94
2022-08-11T15:17:03.274Z,29.80
2022-08-11T15:19:36.662Z,29.64
2022-08-11T15:22:29.173Z,29.82
2022-08-11T15:24:58.995Z,29.79
2022-08-11T15:27:46.831Z,29.88
2022-08-11T15:30:34.261Z,29.73
2022-08-11T15:33:23.698Z,29.67
2022-08-11T15:36:11.568Z,29.75
2022-08-11T15:38:43.118Z,29.74
2022-08-11T15:41:32.385Z,29.57
2022-08-11T15:44:19.556Z,29.61
2022-08-11T15:46:52.526Z,29.61
2022-08-11T15:50:11.056Z,29.56
2022-08-11T15:52:30.947Z,29.62
2022-08-11T15:55:02.164Z,29.52
2022-08-11T15:57:49.386Z,29.44
2022-08-11T16:00:35.730Z,29.57
2022-08-11T16:03:22.159Z,29.53
2022-08-11T16:05:52.874Z,29.49
2022-08-11T16:08:33.222Z,29.57
2022-08-11T16:11:01.911Z,29.52
2022-08-11T16:13:34.786Z,29.52
2022-08-11T16:16:15.142Z,29.56
2022-08-11T16:18:52.083Z,29.49
2022-08-11T16:21:26.159Z,29.50
2022-08-11T16:24:07.874Z,29.42
2022-08-11T16:27:08.760Z,29.57
2022-08-11T16:29:26.426Z,29.31
2022-08-11T16:32:14.431Z,29.31
2022-08-11T16:35:02.887Z,29.26
2022-08-11T16:37:52.116Z,29.09
2022-08-11T16:40:22.515Z,29.15
2022-08-11T16:43:11.275Z,29.13
2022-08-11T16:45:59.957Z,29.21
2022-08-11T16:48:37.423Z,29.15
2022-08-11T16:51:07.429Z,29.10
2022-08-11T16:54:00.218Z,29.04
2022-08-11T16:56:28.547Z,28.88
2022-08-11T16:59:17.107Z,28.84
2022-08-11T17:01:45.300Z,28.64
2022-08-11T17:04:52.533Z,28.44
2022-08-11T17:07:41.512Z,28.61
2022-08-11T17:10:50.807Z,28.55
2022-08-11T17:13:26.202Z,28.42
2022-08-11T17:16:13.122Z,28.45
2022-08-11T17:18:49.304Z,28.12
2022-08-11T17:21:21.035Z,28.28
2022-08-11T17:23:52.812Z,28.26
2022-08-11T17:26:23.462Z,28.32
2022-08-11T17:28:57.960Z,28.13
2022-08-11T17:31:46.082Z,28.09
2022-08-11T17:34:34.378Z,28.11
2022-08-11T17:37:03.216Z,27.47
2022-08-11T17:39:31.824Z,27.32
2022-08-11T17:42:19.475Z,27.47
2022-08-11T17:45:06.854Z,27.30
2022-08-11T17:48:07.074Z,27.17
2022-08-11T17:50:36.576Z,26.86
2022-08-11T17:53:22.636Z,26.52
2022-08-11T17:56:09.294Z,26.46
2022-08-11T17:58:57.331Z,26.58
2022-08-11T18:01:25.560Z,26.59
2022-08-11T18:03:58.377Z,26.56
2022-08-11T18:06:34.877Z,26.55
2022-08-11T18:09:27.262Z,26.50
2022-08-11T18:12:14.372Z,26.56
2022-08-11T18:15:04.419Z,26.63
2022-08-11T18:17:50.354Z,26.60
2022-08-11T18:20:38.176Z,26.69
2022-08-11T18:23:45.819Z,26.54
2022-08-11T18:26:39.044Z,26.53
2022-08-11T18:29:26.380Z,26.54
2022-08-11T18:32:21.129Z,26.39
2022-08-11T18:35:09.318Z,26.43
2022-08-11T18:38:04.336Z,26.44
2022-08-11T18:40:50.891Z,26.44
2022-08-11T18:43:43.337Z,26.58
2022-08-11T18:46:32.060Z,26.47
2022-08-11T18:49:22.519Z,26.31
2022-08-11T18:52:13.384Z,26.44
2022-08-11T18:55:00.950Z,26.63
2022-08-11T18:57:53.706Z,26.46
2022-08-11T19:00:46.538Z,26.38
2022-08-11T19:03:43.437Z,26.27
2022-08-11T19:06:40.725Z,26.25
2022-08-11T19:09:36.681Z,26.41
2022-08-11T19:12:26.957Z,26.31
2022-08-11T19:15:16.298Z,26.07
2022-08-11T19:18:04.823Z,26.17
2022-08-11T19:20:57.122Z,26.04
2022-08-11T19:23:54.573Z,26.09
2022-08-11T19:26:45.016Z,26.18
2022-08-11T19:30:07.619Z,25.91
2022-08-11T19:32:53.419Z,25.94
2022-08-11T19:35:45.622Z,26.20
2022-08-11T19:38:32.730Z,25.98
2022-08-11T19:41:56.165Z,25.95
2022-08-11T19:44:26.393Z,25.91
2022-08-11T19:47:13.861Z,25.92
2022-08-11T19:50:04.469Z,26.02
2022-08-11T19:52:56.149Z,26.28
2022-08-11T19:55:45.392Z,26.38
2022-08-11T19:58:35.596Z,26.38
2022-08-11T20:01:24.257Z,26.27
2022-08-11T20:04:11.124Z,26.34
2022-08-11T20:06:59.375Z,26.11
2022-08-11T20:10:04.668Z,26.00
2022-08-11T20:12:54.745Z,26.03
2022-08-11T20:15:42.800Z,25.99
2022-08-11T20:18:32.733Z,25.87
2022-08-11T20:21:20.515Z,25.84
2022-08-11T20:24:16.653Z,25.76
2022-08-11T20:27:04.224Z,25.82
2022-08-11T20:29:52.485Z,25.69
2022-08-11T20:32:39.712Z,25.60
2022-08-11T20:35:28.927Z,25.69
2022-08-11T20:38:15.660Z,25.64
2022-08-11T20:41:02.443Z,25.62
2022-08-11T20:44:05.499Z,25.58
2022-08-11T20:47:00.384Z,25.59
2022-08-11T20:49:53.874Z,25.39
2022-08-11T20:52:48.556Z,25.54
2022-08-11T20:55:51.903Z,25.45
2022-08-11T21:01:47.091Z,25.41
2022-08-11T21:04:54.071Z,25.54
2022-08-11T21:07:57.330Z,25.47
2022-08-11T21:10:52.002Z,25.37
2022-08-11T21:13:42.093Z,25.30
2022-08-11T21:16:29.368Z,25.32
2022-08-11T21:20:01.259Z,25.31
2022-08-11T21:22:42.391Z,25.23
2022-08-11T21:25:46.556Z,25.13
2022-08-11T21:28:33.690Z,25.11
2022-08-11T21:31:23.338Z,25.02
2022-08-11T21:34:09.801Z,24.93
2022-08-11T21:36:57.267Z,24.80
2022-08-11T21:39:43.942Z,24.64
2022-08-11T21:42:30.885Z,24.67
2022-08-11T21:45:16.779Z,24.74
2022-08-11T21:48:03.160Z,24.62
2022-08-11T21:50:48.998Z,24.57
2022-08-11T21:53:36.173Z,24.64
2022-08-11T21:56:22.552Z,24.66
2022-08-11T21:59:15.779Z,24.61
2022-08-11T22:02:03.441Z,24.71
2022-08-11T22:04:49.584Z,24.61
2022-08-11T22:07:39.534Z,24.73
2022-08-11T22:10:42.011Z,24.58
2022-08-11T22:13:31.210Z,24.49
2022-08-11T22:16:20.187Z,24.56
2022-08-11T22:19:08.705Z,24.52
2022-08-11T22:22:01.256Z,24.47
2022-08-11T22:24:51.377Z,24.53
2022-08-11T22:27:38.661Z,24.51
2022-08-11T22:30:26.280Z,24.51
2022-08-11T22:33:15.062Z,24.36
2022-08-11T22:36:03.256Z,24.35
2022-08-11T22:38:51.547Z,24.35
2022-08-11T22:41:37.659Z,24.35
2022-08-11T22:44:23.999Z,24.36
2022-08-11T22:47:10.571Z,24.25
2022-08-11T22:49:58.542Z,24.28
2022-08-11T22:52:47.110Z,24.23
2022-08-11T22:55:34.050Z,24.12
2022-08-11T22:58:24.811Z,24.20
2022-08-11T23:01:11.484Z,24.02
2022-08-11T23:03:57.963Z,24.13
2022-08-11T23:06:44.655Z,24.16
2022-08-11T23:09:30.774Z,24.12
2022-08-11T23:12:17.218Z,24.00
2022-08-11T23:15:04.176Z,24.03
2022-08-11T23:17:50.744Z,23.95
2022-08-11T23:20:45.342Z,23.94
2022-08-11T23:23:37.476Z,23.91
2022-08-11T23:26:23.825Z,23.92
2022-08-11T23:29:11.574Z,23.81
2022-08-11T23:31:57.650Z,23.82
2022-08-11T23:35:04.614Z,23.83
2022-08-11T23:37:51.511Z,23.74
2022-08-11T23:40:37.914Z,23.74
2022-08-11T23:43:24.443Z,23.85
2022-08-11T23:46:10.670Z,23.79
2022-08-11T23:48:57.658Z,23.72
2022-08-11T23:51:44.530Z,23.70
2022-08-11T23:54:35.113Z,23.69
2022-08-11T23:57:23.998Z,23.53
